createdAt,value
2023-12-26T00:00:07.862Z,10.38
2023-12-26T00:03:03.044Z,10.34
2023-12-26T00:05:31.390Z,10.31
2023-12-26T00:08:04.652Z,10.27
2023-12-26T00:10:33.036Z,10.22
2023-12-26T00:13:02.429Z,10.15
2023-12-26T00:15:31.372Z,10.06
2023-12-26T00:17:59.806Z,9.97
2023-12-26T00:20:28.798Z,9.87
2023-12-26T00:22:57.368Z,9.76
2023-12-26T00:25:25.769Z,9.68
2023-12-26T00:27:54.033Z,9.62
2023-12-26T00:30:22.416Z,9.60
2023-12-26T00:32:50.816Z,9.58
2023-12-26T00:35:18.982Z,9.52
2023-12-26T00:37:47.659Z,9.46
2023-12-26T00:40:17.239Z,9.40
2023-12-26T00:42:48.985Z,9.32
2023-12-26T00:45:17.316Z,9.24
2023-12-26T00:47:45.673Z,9.17
2023-12-26T00:50:15.147Z,9.10
2023-12-26T00:52:44.811Z,8.97
2023-12-26T00:55:13.503Z,8.91
2023-12-26T00:57:42.279Z,8.82
2023-12-26T01:00:11.093Z,8.72
2023-12-26T01:02:39.696Z,8.62
2023-12-26T01:05:08.571Z,8.54
2023-12-26T01:07:36.910Z,8.47
2023-12-26T01:10:06.668Z,8.37
2023-12-26T01:12:35.197Z,8.28
2023-12-26T01:15:04.000Z,8.21
2023-12-26T01:17:35.187Z,8.11
2023-12-26T01:20:04.283Z,8.03
2023-12-26T01:22:32.598Z,7.94
2023-12-26T01:25:01.040Z,7.86
2023-12-26T01:27:29.439Z,7.77
2023-12-26T01:29:57.958Z,7.68
2023-12-26T01:32:26.258Z,7.59
2023-12-26T01:34:54.766Z,7.49
2023-12-26T01:37:23.234Z,7.40
2023-12-26T01:39:51.709Z,7.32
2023-12-26T01:42:19.986Z,7.25
2023-12-26T01:44:48.222Z,7.19
2023-12-26T01:47:18.345Z,7.14
2023-12-26T01:49:46.713Z,7.07
2023-12-26T01:52:21.435Z,7.01
2023-12-26T01:54:49.778Z,6.95
2023-12-26T01:57:18.042Z,6.90
2023-12-26T01:59:46.538Z,6.85
2023-12-26T02:02:16.296Z,6.77
2023-12-26T02:04:44.429Z,6.70
2023-12-26T02:07:12.811Z,6.65
2023-12-26T02:09:41.244Z,6.59
2023-12-26T02:12:09.742Z,6.55
2023-12-26T02:14:38.183Z,6.52
2023-12-26T02:17:11.784Z,6.48
2023-12-26T02:19:43.937Z,6.47
2023-12-26T02:22:12.136Z,6.47
2023-12-26T02:24:43.941Z,6.47
2023-12-26T02:27:18.507Z,6.47
2023-12-26T02:29:50.194Z,6.47
2023-12-26T02:32:28.775Z,6.48
2023-12-26T02:34:57.267Z,6.48
2023-12-26T02:37:26.171Z,6.49
2023-12-26T02:39:54.415Z,6.49
2023-12-26T02:42:26.041Z,6.49
2023-12-26T02:44:54.287Z,6.49
2023-12-26T02:47:22.515Z,6.48
2023-12-26T02:49:51.428Z,6.48
2023-12-26T02:52:21.191Z,6.50
2023-12-26T02:54:50.364Z,6.50
2023-12-26T02:57:18.645Z,6.53
2023-12-26T02:59:46.957Z,6.54
2023-12-26T03:02:15.344Z,6.56
2023-12-26T03:04:43.750Z,6.57
2023-12-26T03:07:11.958Z,6.57
2023-12-26T03:09:40.297Z,6.58
2023-12-26T03:12:08.617Z,6.58
2023-12-26T03:14:36.892Z,6.59
2023-12-26T03:17:06.588Z,6.59
2023-12-26T03:19:34.933Z,6.60
2023-12-26T03:22:04.793Z,6.62
2023-12-26T03:24:32.986Z,6.62
2023-12-26T03:27:02.425Z,6.64
2023-12-26T03:29:30.520Z,6.66
2023-12-26T03:31:59.472Z,6.67
2023-12-26T03:34:27.706Z,6.69
2023-12-26T03:36:56.123Z,6.71
2023-12-26T03:39:24.669Z,6.73
2023-12-26T03:41:52.975Z,6.74
2023-12-26T03:44:21.456Z,6.75
2023-12-26T03:46:49.739Z,6.76
2023-12-26T03:49:18.100Z,6.78
2023-12-26T03:51:48.017Z,6.79
2023-12-26T03:54:16.534Z,6.79
2023-12-26T03:56:44.824Z,6.81
2023-12-26T03:59:13.249Z,6.82
2023-12-26T04:01:41.394Z,6.83
2023-12-26T04:04:10.078Z,6.83
2023-12-26T04:06:38.709Z,6.82
2023-12-26T04:09:08.020Z,6.83
2023-12-26T04:11:36.431Z,6.83
2023-12-26T04:14:04.706Z,6.84
2023-12-26T04:16:32.843Z,6.85
2023-12-26T04:19:01.419Z,6.84
2023-12-26T04:21:29.861Z,6.83
2023-12-26T04:23:58.089Z,6.83
2023-12-26T04:26:26.361Z,6.81
2023-12-26T04:28:54.599Z,6.78
2023-12-26T04:31:23.025Z,6.77
2023-12-26T04:33:51.237Z,6.75
2023-12-26T04:36:20.115Z,6.74
2023-12-26T04:38:48.435Z,6.72
2023-12-26T04:41:16.882Z,6.70
2023-12-26T04:43:45.173Z,6.66
2023-12-26T04:46:22.863Z,6.61
2023-12-26T04:48:51.758Z,6.56
2023-12-26T04:51:22.004Z,6.51
2023-12-26T04:53:51.389Z,6.46
2023-12-26T04:56:20.835Z,6.40
2023-12-26T04:58:51.114Z,6.33
2023-12-26T05:01:21.220Z,6.28
2023-12-26T05:03:50.365Z,6.22
2023-12-26T05:06:21.807Z,6.14
2023-12-26T05:08:50.354Z,6.06
2023-12-26T05:11:25.868Z,5.99
2023-12-26T05:13:54.746Z,5.92
2023-12-26T05:16:23.227Z,5.84
2023-12-26T05:18:51.795Z,5.78
2023-12-26T05:21:23.079Z,5.70
2023-12-26T05:23:52.743Z,5.63
2023-12-26T05:26:21.265Z,5.57
2023-12-26T05:28:51.305Z,5.51
2023-12-26T05:31:21.329Z,5.44
2023-12-26T05:33:50.250Z,5.38
2023-12-26T05:36:19.699Z,5.31
2023-12-26T05:38:47.891Z,5.26
2023-12-26T05:41:16.379Z,5.20
2023-12-26T05:43:44.884Z,5.13
2023-12-26T05:46:13.402Z,5.06
2023-12-26T05:48:45.260Z,5.02
2023-12-26T05:51:13.849Z,4.97
2023-12-26T05:53:41.970Z,4.93
2023-12-26T05:56:10.320Z,4.89
2023-12-26T05:58:40.739Z,4.86
2023-12-26T06:01:12.367Z,4.81
2023-12-26T06:03:41.128Z,4.77
2023-12-26T06:06:13.423Z,4.73
2023-12-26T06:08:42.666Z,4.69
2023-12-26T06:11:11.232Z,4.67
2023-12-26T06:13:40.323Z,4.65
2023-12-26T06:16:09.041Z,4.64
2023-12-26T06:18:38.102Z,4.64
2023-12-26T06:21:06.655Z,4.63
2023-12-26T06:23:35.060Z,4.63
2023-12-26T06:26:06.398Z,4.63
2023-12-26T06:28:36.263Z,4.65
2023-12-26T06:31:04.605Z,4.70
2023-12-26T06:33:33.676Z,4.76
2023-12-26T06:36:02.465Z,4.87
2023-12-26T06:38:30.911Z,4.98
2023-12-26T06:40:59.597Z,5.09
2023-12-26T06:43:28.350Z,5.22
2023-12-26T06:45:57.702Z,5.34
2023-12-26T06:48:27.051Z,5.46
2023-12-26T06:50:55.823Z,5.59
2023-12-26T06:53:24.572Z,5.72
2023-12-26T06:55:52.862Z,5.89
2023-12-26T06:58:21.099Z,6.08
2023-12-26T07:00:49.591Z,6.25
2023-12-26T07:03:18.865Z,6.43
2023-12-26T07:05:47.423Z,6.61
2023-12-26T07:08:15.728Z,6.77
2023-12-26T07:10:44.015Z,6.93
2023-12-26T07:13:12.326Z,7.08
2023-12-26T07:15:40.471Z,7.23
2023-12-26T07:18:10.396Z,7.34
2023-12-26T07:20:38.808Z,7.46
2023-12-26T07:23:08.603Z,7.57
2023-12-26T07:25:38.856Z,7.69
2023-12-26T07:28:07.102Z,7.84
2023-12-26T07:30:35.667Z,8.00
2023-12-26T07:33:04.089Z,8.18
2023-12-26T07:35:36.465Z,8.43
2023-12-26T07:38:05.575Z,8.69
2023-12-26T07:40:33.947Z,8.90
2023-12-26T07:43:02.313Z,9.00
2023-12-26T07:45:30.630Z,9.08
2023-12-26T07:47:58.908Z,9.14
2023-12-26T07:50:27.341Z,9.18
2023-12-26T07:52:55.845Z,9.23
2023-12-26T07:55:24.216Z,9.28
2023-12-26T07:57:52.562Z,9.34
2023-12-26T08:00:21.787Z,9.42
2023-12-26T08:02:50.231Z,9.50
2023-12-26T08:05:19.035Z,9.61
2023-12-26T08:07:47.502Z,9.75
2023-12-26T08:10:17.409Z,9.90
2023-12-26T08:12:46.078Z,10.06
2023-12-26T08:15:15.360Z,10.18
2023-12-26T08:17:45.204Z,10.29
2023-12-26T08:20:14.777Z,10.44
2023-12-26T08:22:43.144Z,10.60
2023-12-26T08:25:12.608Z,10.78
2023-12-26T08:27:41.966Z,11.00
2023-12-26T08:30:22.629Z,11.24
2023-12-26T08:32:51.357Z,11.54
2023-12-26T08:35:20.030Z,11.84
2023-12-26T08:37:51.600Z,12.15
2023-12-26T08:40:22.345Z,12.44
2023-12-26T08:42:50.535Z,12.73
2023-12-26T08:45:24.406Z,12.94
2023-12-26T08:47:55.317Z,13.03
2023-12-26T08:50:23.779Z,13.02
2023-12-26T08:52:52.663Z,13.00
2023-12-26T08:55:21.226Z,12.93
2023-12-26T08:57:49.368Z,12.81
2023-12-26T09:00:17.991Z,12.70
2023-12-26T09:02:56.327Z,12.67
2023-12-26T09:05:28.802Z,12.74
2023-12-26T09:07:58.009Z,12.81
2023-12-26T09:10:26.293Z,12.88
2023-12-26T09:12:54.835Z,12.99
2023-12-26T09:15:23.345Z,13.24
2023-12-26T09:17:51.786Z,13.62
2023-12-26T09:20:20.461Z,14.00
2023-12-26T09:22:48.740Z,14.39
2023-12-26T09:25:17.044Z,14.80
2023-12-26T09:27:45.365Z,15.21
2023-12-26T09:30:14.892Z,15.61
2023-12-26T09:32:43.535Z,16.00
2023-12-26T09:35:11.936Z,16.38
2023-12-26T09:37:40.550Z,16.69
2023-12-26T09:40:11.457Z,16.93
2023-12-26T09:42:39.799Z,17.07
2023-12-26T09:45:15.126Z,17.03
2023-12-26T09:47:44.435Z,17.00
2023-12-26T09:50:13.418Z,17.08
2023-12-26T09:52:48.935Z,17.19
2023-12-26T09:55:18.476Z,17.26
2023-12-26T09:57:46.971Z,17.25
2023-12-26T10:00:15.559Z,17.23
2023-12-26T10:02:44.280Z,17.18
2023-12-26T10:05:13.151Z,17.05
2023-12-26T10:07:41.491Z,16.87
2023-12-26T10:10:13.282Z,16.72
2023-12-26T10:12:41.406Z,16.59
2023-12-26T10:15:11.297Z,16.48
2023-12-26T10:17:43.527Z,16.38
2023-12-26T10:20:19.473Z,16.31
2023-12-26T10:22:47.707Z,16.21
2023-12-26T10:25:16.166Z,16.03
2023-12-26T10:27:55.997Z,15.86
2023-12-26T10:30:26.600Z,15.68
2023-12-26T10:33:03.120Z,15.57
2023-12-26T10:35:32.566Z,15.68
2023-12-26T10:38:01.067Z,15.84
2023-12-26T10:40:30.215Z,15.96
2023-12-26T10:42:59.413Z,15.99
2023-12-26T10:45:28.987Z,15.94
2023-12-26T10:47:58.920Z,15.88
2023-12-26T10:50:29.216Z,15.83
2023-12-26T10:53:18.436Z,15.80
2023-12-26T10:55:48.081Z,15.86
2023-12-26T10:58:17.521Z,15.92
2023-12-26T11:00:51.170Z,15.98
2023-12-26T11:04:15.833Z,16.06
2023-12-26T11:07:58.445Z,16.05
2023-12-26T11:11:41.416Z,15.99
2023-12-26T11:15:24.365Z,15.92
2023-12-26T11:19:08.956Z,15.89
2023-12-26T11:22:52.276Z,15.85
2023-12-26T11:26:36.428Z,15.78
2023-12-26T11:30:19.947Z,15.69
2023-12-26T11:34:03.436Z,15.65
2023-12-26T11:37:46.795Z,15.59
2023-12-26T11:41:30.136Z,15.43
2023-12-26T11:45:13.697Z,15.31
2023-12-26T11:48:57.688Z,15.34
2023-12-26T11:52:40.993Z,15.35
2023-12-26T11:56:23.633Z,15.40
2023-12-26T12:00:07.682Z,15.45
2023-12-26T12:03:50.550Z,15.51
2023-12-26T12:07:34.832Z,15.56
2023-12-26T12:11:17.320Z,15.54
2023-12-26T12:15:00.523Z,15.51
2023-12-26T12:18:43.814Z,15.50
2023-12-26T12:22:26.975Z,15.49
2023-12-26T12:26:10.318Z,15.48
2023-12-26T12:29:52.796Z,15.46
2023-12-26T12:33:35.658Z,15.43
2023-12-26T12:37:18.319Z,15.37
2023-12-26T12:41:01.933Z,15.28
2023-12-26T12:44:45.725Z,15.16
2023-12-26T12:48:29.042Z,14.97
2023-12-26T12:52:12.319Z,14.75
2023-12-26T12:55:55.727Z,14.56
2023-12-26T12:59:38.730Z,14.38
2023-12-26T13:03:28.384Z,14.22
2023-12-26T13:07:21.860Z,14.05
2023-12-26T13:11:17.889Z,13.94
2023-12-26T13:15:07.530Z,13.85
2023-12-26T13:18:50.780Z,13.73
2023-12-26T13:22:33.448Z,13.61
2023-12-26T13:26:16.783Z,13.49
2023-12-26T13:29:47.988Z,13.41
2023-12-26T13:33:31.403Z,13.35
2023-12-26T13:37:21.767Z,13.29
2023-12-26T13:41:04.747Z,13.19
2023-12-26T13:44:47.265Z,13.10
2023-12-26T13:48:30.129Z,13.03
2023-12-26T13:51:27.191Z,12.95
2023-12-26T13:54:34.209Z,12.89
2023-12-26T13:57:03.196Z,12.80
2023-12-26T13:59:32.666Z,12.74
2023-12-26T14:02:38.512Z,12.69
2023-12-26T14:05:44.569Z,12.60
2023-12-26T14:08:50.790Z,12.50
2023-12-26T14:11:20.724Z,12.40
2023-12-26T14:13:49.259Z,12.32
2023-12-26T14:16:25.233Z,12.27
2023-12-26T14:18:53.775Z,12.21
2023-12-26T14:21:22.179Z,12.15
2023-12-26T14:23:50.614Z,12.08
2023-12-26T14:26:57.242Z,12.00
2023-12-26T14:30:03.399Z,11.92
2023-12-26T14:33:10.879Z,11.79
2023-12-26T14:35:46.556Z,11.67
2023-12-26T14:38:52.513Z,11.58
2023-12-26T14:41:59.992Z,11.47
2023-12-26T14:45:06.073Z,11.37
2023-12-26T14:47:34.557Z,11.28
2023-12-26T14:50:40.343Z,11.22
2023-12-26T14:53:46.206Z,11.14
2023-12-26T14:56:14.591Z,11.06
2023-12-26T14:59:20.330Z,11.00
2023-12-26T15:01:48.608Z,10.92
2023-12-26T15:04:17.034Z,10.83
2023-12-26T15:06:45.267Z,10.76
2023-12-26T15:09:14.113Z,10.65
2023-12-26T15:11:42.822Z,10.57
2023-12-26T15:14:31.106Z,10.47
2023-12-26T15:17:02.513Z,10.38
2023-12-26T15:19:31.018Z,10.30
2023-12-26T15:21:59.561Z,10.22
2023-12-26T15:24:28.358Z,10.15
2023-12-26T15:26:56.948Z,10.06
2023-12-26T15:29:25.330Z,9.99
2023-12-26T15:31:53.919Z,9.92
2023-12-26T15:34:22.673Z,9.87
2023-12-26T15:36:51.937Z,9.80
2023-12-26T15:39:20.725Z,9.76
2023-12-26T15:41:50.263Z,9.71
2023-12-26T15:44:18.688Z,9.65
2023-12-26T15:46:48.014Z,9.61
2023-12-26T15:49:16.533Z,9.55
2023-12-26T15:51:44.897Z,9.49
2023-12-26T15:54:15.491Z,9.43
2023-12-26T15:56:43.949Z,9.39
2023-12-26T15:59:12.225Z,9.36
2023-12-26T16:01:49.574Z,9.32
2023-12-26T16:04:19.333Z,9.27
2023-12-26T16:06:48.073Z,9.20
2023-12-26T16:09:17.532Z,9.12
2023-12-26T16:11:46.300Z,9.06
2023-12-26T16:14:15.001Z,9.00
2023-12-26T16:16:45.557Z,8.95
2023-12-26T16:19:13.882Z,8.90
2023-12-26T16:21:42.534Z,8.84
2023-12-26T16:24:12.808Z,8.78
2023-12-26T16:26:44.085Z,8.71
2023-12-26T16:29:12.738Z,8.63
2023-12-26T16:31:41.349Z,8.55
2023-12-26T16:34:10.502Z,8.46
2023-12-26T16:36:38.923Z,8.38
2023-12-26T16:39:08.353Z,8.30
2023-12-26T16:41:37.005Z,8.23
2023-12-26T16:44:11.019Z,8.14
2023-12-26T16:46:45.369Z,8.04
2023-12-26T16:49:18.112Z,7.91
2023-12-26T16:51:46.687Z,7.80
2023-12-26T16:54:14.982Z,7.70
2023-12-26T16:56:43.490Z,7.62
2023-12-26T16:59:11.846Z,7.53
2023-12-26T17:01:44.319Z,7.44
2023-12-26T17:04:16.754Z,7.34
2023-12-26T17:06:45.912Z,7.24
2023-12-26T17:09:14.531Z,7.16
2023-12-26T17:11:46.734Z,7.06
2023-12-26T17:14:15.430Z,6.99
2023-12-26T17:16:43.992Z,6.92
2023-12-26T17:19:12.516Z,6.84
2023-12-26T17:21:43.301Z,6.77
2023-12-26T17:24:12.129Z,6.71
2023-12-26T17:26:43.554Z,6.64
2023-12-26T17:29:12.127Z,6.57
2023-12-26T17:31:54.472Z,6.52
2023-12-26T17:34:27.600Z,6.45
2023-12-26T17:36:56.362Z,6.38
2023-12-26T17:39:30.766Z,6.31
2023-12-26T17:41:59.954Z,6.24
2023-12-26T17:44:29.329Z,6.18
2023-12-26T17:46:57.976Z,6.12
2023-12-26T17:49:26.781Z,6.06
2023-12-26T17:51:55.488Z,6.00
2023-12-26T17:54:24.223Z,5.95
2023-12-26T17:56:56.930Z,5.91
2023-12-26T17:59:26.212Z,5.87
2023-12-26T18:01:54.933Z,5.84
2023-12-26T18:04:25.757Z,5.81
2023-12-26T18:09:38.585Z,5.72
2023-12-26T18:12:07.334Z,5.70
2023-12-26T18:14:37.549Z,5.68
2023-12-26T18:17:14.828Z,5.66
2023-12-26T18:19:46.753Z,5.64
2023-12-26T18:22:18.337Z,5.62
2023-12-26T18:24:46.929Z,5.61
2023-12-26T18:27:16.447Z,5.60
2023-12-26T18:29:44.958Z,5.59
2023-12-26T18:32:13.923Z,5.57
2023-12-26T18:34:45.657Z,5.55
2023-12-26T18:37:14.204Z,5.52
2023-12-26T18:39:42.654Z,5.48
2023-12-26T18:42:12.434Z,5.44
2023-12-26T18:44:42.081Z,5.40
2023-12-26T18:47:10.777Z,5.37
2023-12-26T18:49:39.514Z,5.33
2023-12-26T18:52:09.082Z,5.28
2023-12-26T18:54:37.532Z,5.23
2023-12-26T18:57:06.707Z,5.20
2023-12-26T18:59:35.444Z,5.17
2023-12-26T19:02:04.219Z,5.14
2023-12-26T19:04:32.932Z,5.12
2023-12-26T19:07:01.831Z,5.10
2023-12-26T19:09:31.007Z,5.08
2023-12-26T19:12:00.511Z,5.07
2023-12-26T19:14:29.271Z,5.06
2023-12-26T19:17:07.245Z,5.06
2023-12-26T19:19:37.895Z,5.05
2023-12-26T19:22:20.511Z,5.05
2023-12-26T19:24:53.770Z,5.03
2023-12-26T19:27:25.459Z,5.02
2023-12-26T19:29:59.263Z,5.01
2023-12-26T19:32:30.317Z,4.99
2023-12-26T19:35:09.402Z,4.98
2023-12-26T19:37:42.902Z,4.96
2023-12-26T19:40:14.501Z,4.95
2023-12-26T19:42:48.341Z,4.94
2023-12-26T19:45:17.184Z,4.93
2023-12-26T19:47:45.772Z,4.93
2023-12-26T19:50:17.347Z,4.92
2023-12-26T19:52:46.396Z,4.91
2023-12-26T19:55:25.276Z,4.91
2023-12-26T19:58:02.747Z,4.91
2023-12-26T20:00:31.746Z,4.90
2023-12-26T20:03:15.985Z,4.89
2023-12-26T20:05:53.995Z,4.86
2023-12-26T20:08:24.108Z,4.84
2023-12-26T20:10:57.224Z,4.83
2023-12-26T20:13:25.805Z,4.80
2023-12-26T20:15:56.343Z,4.79
2023-12-26T20:18:27.518Z,4.77
2023-12-26T20:20:56.261Z,4.75
2023-12-26T20:23:24.724Z,4.71
2023-12-26T20:25:53.094Z,4.67
2023-12-26T20:28:22.351Z,4.64
2023-12-26T20:30:51.160Z,4.59
2023-12-26T20:33:19.766Z,4.56
2023-12-26T20:35:48.119Z,4.54
2023-12-26T20:38:17.031Z,4.51
2023-12-26T20:40:47.340Z,4.45
2023-12-26T20:43:16.168Z,4.41
2023-12-26T20:45:44.683Z,4.36
2023-12-26T20:48:13.191Z,4.32
2023-12-26T20:50:44.022Z,4.30
2023-12-26T20:53:12.367Z,4.27
2023-12-26T20:55:42.480Z,4.25
2023-12-26T20:58:11.414Z,4.21
2023-12-26T21:00:40.026Z,4.16
2023-12-26T21:03:08.863Z,4.12
2023-12-26T21:05:37.492Z,4.07
2023-12-26T21:08:06.171Z,4.02
2023-12-26T21:10:34.581Z,3.98
2023-12-26T21:13:04.329Z,3.95
2023-12-26T21:15:46.785Z,3.92
2023-12-26T21:18:35.767Z,3.86
2023-12-26T21:21:44.457Z,3.85
2023-12-26T21:24:16.670Z,3.82
2023-12-26T21:26:51.539Z,3.83
2023-12-26T21:29:24.680Z,3.85
2023-12-26T21:32:13.653Z,3.86
2023-12-26T21:34:46.317Z,3.89
2023-12-26T21:37:23.586Z,3.91
2023-12-26T21:40:03.785Z,3.91
2023-12-26T21:42:32.612Z,3.91
2023-12-26T21:45:05.311Z,3.91
2023-12-26T21:47:36.741Z,3.91
2023-12-26T21:50:08.776Z,3.89
2023-12-26T21:52:38.972Z,3.87
2023-12-26T21:55:08.223Z,3.85
2023-12-26T21:57:37.002Z,3.83
2023-12-26T22:00:13.228Z,3.82
2023-12-26T22:03:43.209Z,3.80
2023-12-26T22:06:15.739Z,3.81
2023-12-26T22:09:04.313Z,3.79
2023-12-26T22:12:18.197Z,3.76
2023-12-26T22:16:13.389Z,3.74
2023-12-26T22:22:31.720Z,3.69
2023-12-26T22:29:53.824Z,3.60
2023-12-26T22:32:24.842Z,3.57
2023-12-26T22:34:59.657Z,3.54
2023-12-26T22:38:33.832Z,3.51
2023-12-26T22:41:57.404Z,3.46
2023-12-26T22:44:51.049Z,3.42
2023-12-26T22:47:48.386Z,3.38
2023-12-26T22:50:21.176Z,3.35
2023-12-26T22:53:11.736Z,3.32
2023-12-26T22:55:41.195Z,3.29
2023-12-26T22:58:11.987Z,3.27
2023-12-26T23:00:56.370Z,3.23
2023-12-26T23:14:06.810Z,3.05
2023-12-26T23:16:45.220Z,3.01
2023-12-26T23:19:17.278Z,2.96
2023-12-26T23:21:50.975Z,2.87
2023-12-26T23:24:20.607Z,2.85
2023-12-26T23:26:56.210Z,2.80
2023-12-26T23:29:26.238Z,2.77
2023-12-26T23:31:55.848Z,2.75
2023-12-26T23:34:38.536Z,2.74
2023-12-26T23:39:11.415Z,2.70
2023-12-26T23:42:46.707Z,2.62
2023-12-26T23:45:24.555Z,2.56
2023-12-26T23:48:22.145Z,2.49
2023-12-26T23:51:13.306Z,2.42
2023-12-26T23:53:50.081Z,2.37
2023-12-26T23:56:23.578Z,2.33
